TimePST,TemperatureF,Dew PointF,Humidity,Sea Level PressureIn,VisibilityMPH,Wind Direction,Wind SpeedMPH,Gust SpeedMPH,PrecipitationIn,Events,Conditions,WindDirDegrees,DateUTC
12:15 AM,48.2,35.6,62,30.26,10.0,SSE,3.5,-,N/A,,Clear,160,2012-11-13 08:15:00
12:35 AM,48.2,33.8,58,30.25,10.0,Calm,Calm,-,N/A,,Clear,0,2012-11-13 08:35:00
12:55 AM,50.0,33.8,54,30.25,10.0,Calm,Calm,-,N/A,,Clear,0,2012-11-13 08:55:00
1:15 AM,48.2,35.6,62,30.24,10.0,Calm,Calm,-,N/A,,Clear,0,2012-11-13 09:15:00
1:35 AM,44.6,35.6,71,30.24,10.0,Calm,Calm,-,N/A,,Clear,0,2012-11-13 09:35:00
1:55 AM,46.4,35.6,66,30.24,10.0,Calm,Calm,-,N/A,,Clear,0,2012-11-13 09:55:00
2:15 AM,46.4,35.6,66,30.24,10.0,Calm,Calm,-,N/A,,Clear,0,2012-11-13 10:15:00
2:35 AM,46.4,35.6,66,30.24,10.0,Calm,Calm,-,N/A,,Clear,0,2012-11-13 10:35:00
2:55 AM,46.4,35.6,66,30.23,10.0,Calm,Calm,-,N/A,,Clear,0,2012-11-13 10:55:00
3:15 AM,46.4,35.6,66,30.22,10.0,Calm,Calm,-,N/A,,Clear,0,2012-11-13 11:15:00
3:35 AM,50.0,32.0,50,30.23,10.0,Calm,Calm,-,N/A,,Clear,0,2012-11-13 11:35:00
4:15 AM,50.0,32.0,50,30.23,10.0,Calm,Calm,-,N/A,,Clear,0,2012-11-13 12:15:00
4:35 AM,46.4,32.0,57,30.23,10.0,Calm,Calm,-,N/A,,Clear,0,2012-11-13 12:35:00
4:55 AM,46.4,32.0,57,30.22,10.0,ENE,3.5,-,N/A,,Clear,60,2012-11-13 12:55:00
5:15 AM,44.6,32.0,61,30.21,10.0,Calm,Calm,-,N/A,,Clear,0,2012-11-13 13:15:00
5:35 AM,50.0,32.0,50,30.21,10.0,ESE,3.5,-,N/A,,Clear,110,2012-11-13 13:35:00
5:55 AM,46.4,32.0,57,30.21,10.0,Calm,Calm,-,N/A,,Clear,0,2012-11-13 13:55:00
6:15 AM,53.6,30.2,41,30.21,10.0,East,5.8,-,N/A,,Clear,90,2012-11-13 14:15:00
6:35 AM,53.6,30.2,41,30.20,10.0,ENE,5.8,-,N/A,,Clear,70,2012-11-13 14:35:00
6:55 AM,55.4,28.4,36,30.21,10.0,ENE,10.4,-,N/A,,Clear,60,2012-11-13 14:55:00
7:15 AM,55.4,28.4,36,30.20,10.0,ENE,10.4,-,N/A,,Clear,60,2012-11-13 15:15:00
7:35 AM,55.4,32.0,41,30.21,10.0,Calm,Calm,-,N/A,,Clear,0,2012-11-13 15:35:00
7:55 AM,53.6,33.8,47,30.21,10.0,Calm,Calm,-,N/A,,Clear,0,2012-11-13 15:55:00
8:15 AM,59.0,32.0,36,30.20,10.0,ENE,3.5,-,N/A,,Clear,70,2012-11-13 16:15:00
8:35 AM,59.0,32.0,36,30.20,10.0,ENE,9.2,-,N/A,,Clear,60,2012-11-13 16:35:00
8:55 AM,60.8,32.0,34,30.19,10.0,ENE,10.4,-,N/A,,Clear,60,2012-11-13 16:55:00
9:15 AM,62.6,32.0,32,30.19,10.0,NE,9.2,-,N/A,,Clear,40,2012-11-13 17:15:00
9:35 AM,60.8,33.8,36,30.19,10.0,NW,6.9,-,N/A,,Clear,320,2012-11-13 17:35:00
9:55 AM,59.0,37.4,45,30.19,10.0,WNW,8.1,-,N/A,,Clear,290,2012-11-13 17:55:00
10:15 AM,60.8,39.2,45,30.20,10.0,Calm,Calm,-,N/A,,Clear,0,2012-11-13 18:15:00
10:55 AM,62.6,35.6,37,30.19,10.0,WNW,4.6,-,N/A,,Clear,300,2012-11-13 18:55:00
11:15 AM,62.6,35.6,37,30.18,10.0,WNW,5.8,-,N/A,,Clear,290,2012-11-13 19:15:00
11:35 AM,62.6,35.6,37,30.17,10.0,NW,6.9,-,N/A,,Clear,320,2012-11-13 19:35:00
11:55 AM,64.4,33.8,32,30.16,10.0,NW,6.9,-,N/A,,Clear,310,2012-11-13 19:55:00
12:15 PM,64.4,32.0,30,30.15,10.0,WNW,5.8,-,N/A,,Clear,300,2012-11-13 20:15:00
12:35 PM,64.4,32.0,30,30.14,10.0,West,4.6,-,N/A,,Clear,280,2012-11-13 20:35:00
12:55 PM,64.4,33.8,32,30.13,10.0,West,3.5,-,N/A,,Clear,260,2012-11-13 20:55:00
1:15 PM,66.2,35.6,32,30.12,10.0,West,3.5,-,N/A,,Clear,280,2012-11-13 21:15:00
1:35 PM,68.0,35.6,30,30.11,10.0,WNW,3.5,-,N/A,,Clear,290,2012-11-13 21:35:00
1:55 PM,68.0,37.4,33,30.11,10.0,NNW,4.6,-,N/A,,Clear,340,2012-11-13 21:55:00
2:15 PM,69.8,35.6,28,30.10,10.0,ENE,11.5,-,N/A,,Clear,60,2012-11-13 22:15:00
2:35 PM,68.0,37.4,33,30.10,10.0,South,4.6,-,N/A,,Clear,170,2012-11-13 22:35:00
2:55 PM,68.0,37.4,33,30.10,10.0,Calm,Calm,-,N/A,,Clear,0,2012-11-13 22:55:00
3:15 PM,68.0,37.4,33,30.10,10.0,West,3.5,-,N/A,,Clear,260,2012-11-13 23:15:00
3:35 PM,64.4,44.6,49,30.09,10.0,NW,8.1,-,N/A,,Clear,320,2012-11-13 23:35:00
3:55 PM,64.4,44.6,49,30.09,10.0,North,8.1,-,N/A,,Clear,350,2012-11-13 23:55:00
4:15 PM,64.4,44.6,49,30.09,10.0,North,8.1,-,N/A,,Clear,350,2012-11-14 00:15:00
4:35 PM,64.4,41.0,42,30.09,10.0,North,8.1,-,N/A,,Clear,350,2012-11-14 00:35:00
4:55 PM,62.6,41.0,45,30.09,10.0,North,8.1,-,N/A,,Clear,350,2012-11-14 00:55:00
5:15 PM,62.6,41.0,45,30.09,10.0,NNE,5.8,-,N/A,,Clear,20,2012-11-14 01:15:00
5:35 PM,62.6,39.2,42,30.09,10.0,NNW,3.5,-,N/A,,Clear,330,2012-11-14 01:35:00
5:55 PM,60.8,39.2,45,30.08,10.0,NNE,6.9,-,N/A,,Clear,30,2012-11-14 01:55:00
6:15 PM,62.6,37.4,39,30.07,10.0,NE,8.1,-,N/A,,Clear,40,2012-11-14 02:15:00
6:35 PM,64.4,37.4,37,30.07,10.0,NE,8.1,-,N/A,,Clear,40,2012-11-14 02:35:00
6:55 PM,62.6,37.4,39,30.07,10.0,NE,9.2,-,N/A,,Clear,40,2012-11-14 02:55:00
7:15 PM,62.6,37.4,39,30.07,10.0,NE,8.1,-,N/A,,Clear,40,2012-11-14 03:15:00
7:35 PM,57.2,39.2,51,30.07,10.0,Calm,Calm,-,N/A,,Clear,0,2012-11-14 03:35:00
7:55 PM,62.6,37.4,39,30.07,10.0,NNE,5.8,-,N/A,,Clear,30,2012-11-14 03:55:00
8:15 PM,59.0,39.2,48,30.07,10.0,NNE,4.6,-,N/A,,Clear,20,2012-11-14 04:15:00
8:35 PM,62.6,37.4,39,30.08,10.0,NNE,3.5,-,N/A,,Clear,30,2012-11-14 04:35:00
8:55 PM,62.6,35.6,37,30.08,10.0,ENE,6.9,-,N/A,,Clear,70,2012-11-14 04:55:00
9:15 PM,62.6,37.4,39,30.08,10.0,ENE,5.8,-,N/A,,Clear,70,2012-11-14 05:15:00
9:35 PM,62.6,39.2,42,30.08,10.0,East,5.8,-,N/A,,Clear,80,2012-11-14 05:35:00
9:55 PM,62.6,37.4,39,30.08,10.0,ENE,4.6,-,N/A,,Clear,60,2012-11-14 05:55:00
10:15 PM,62.6,37.4,39,30.08,10.0,ENE,9.2,-,N/A,,Clear,60,2012-11-14 06:15:00
10:35 PM,62.6,35.6,37,30.08,10.0,ENE,8.1,-,N/A,,Clear,60,2012-11-14 06:35:00
10:55 PM,62.6,35.6,37,30.09,10.0,East,9.2,-,N/A,,Clear,80,2012-11-14 06:55:00
11:15 PM,62.6,35.6,37,30.08,10.0,NNE,5.8,-,N/A,,Clear,20,2012-11-14 07:15:00
11:35 PM,64.4,33.8,32,30.08,10.0,North,4.6,-,N/A,,Clear,360,2012-11-14 07:35:00
11:55 PM,62.6,33.8,34,30.08,10.0,North,4.6,-,N/A,,Clear,350,2012-11-14 07:55:00